createdAt,value
2017-09-27T00:00:00.750Z,91.90
2017-09-27T00:02:26.775Z,91.90
2017-09-27T00:04:53.175Z,92.10
2017-09-27T00:07:19.187Z,92.20
2017-09-27T00:09:45.198Z,92.00
2017-09-27T00:12:11.962Z,92.10
2017-09-27T00:14:37.994Z,92.10
2017-09-27T00:17:04.003Z,92.00
2017-09-27T00:19:30.016Z,92.10
2017-09-27T00:21:56.023Z,92.20
2017-09-27T00:24:22.799Z,92.60
2017-09-27T00:26:48.846Z,92.60
2017-09-27T00:29:14.878Z,92.40
2017-09-27T00:31:40.943Z,92.60
2017-09-27T00:34:06.971Z,92.40
2017-09-27T00:36:32.993Z,92.50
2017-09-27T00:38:59.068Z,92.60
2017-09-27T00:41:25.095Z,92.50
2017-09-27T00:43:51.118Z,92.70
2017-09-27T00:46:17.145Z,92.60
2017-09-27T00:48:43.906Z,92.50
2017-09-27T00:51:09.947Z,92.50
2017-09-27T00:53:36.002Z,92.60
2017-09-27T00:56:02.012Z,93.00
2017-09-27T00:58:28.030Z,92.50
2017-09-27T01:00:54.235Z,92.60
2017-09-27T01:03:20.249Z,92.50
2017-09-27T01:05:46.310Z,92.50
2017-09-27T01:08:12.358Z,92.40
2017-09-27T01:10:38.392Z,92.40
2017-09-27T01:13:05.162Z,92.40
2017-09-27T01:15:31.218Z,92.40
2017-09-27T01:17:57.221Z,92.50
2017-09-27T01:20:23.230Z,92.40
2017-09-27T01:22:49.269Z,92.40
2017-09-27T01:25:15.294Z,92.40
2017-09-27T01:27:41.350Z,92.20
2017-09-27T01:30:07.409Z,92.10
2017-09-27T01:32:33.435Z,92.30
2017-09-27T01:34:59.452Z,92.30
2017-09-27T01:37:25.506Z,92.40
2017-09-27T01:39:51.514Z,92.30
2017-09-27T01:42:17.535Z,92.40
2017-09-27T01:44:50.931Z,92.40
2017-09-27T01:47:16.942Z,92.40
2017-09-27T01:49:42.958Z,92.30
2017-09-27T01:52:09.393Z,92.20
2017-09-27T01:54:35.402Z,92.20
2017-09-27T01:57:01.423Z,92.10
2017-09-27T01:59:27.459Z,92.30
2017-09-27T02:01:53.482Z,92.20
2017-09-27T02:04:19.510Z,92.30
2017-09-27T02:06:45.535Z,92.10
2017-09-27T02:09:11.550Z,92.20
2017-09-27T02:11:37.603Z,92.30
2017-09-27T02:14:03.628Z,92.30
2017-09-27T02:16:29.913Z,92.40
2017-09-27T02:18:55.919Z,92.20
2017-09-27T02:21:22.673Z,92.20
2017-09-27T02:23:48.725Z,92.20
2017-09-27T02:26:14.730Z,92.10
2017-09-27T02:28:40.749Z,92.40
2017-09-27T02:31:06.792Z,92.30
2017-09-27T02:33:32.818Z,92.30
2017-09-27T02:35:58.821Z,92.30
2017-09-27T02:38:31.901Z,92.20
2017-09-27T02:40:57.916Z,92.30
2017-09-27T02:43:23.964Z,92.20
2017-09-27T02:45:50.038Z,92.20
2017-09-27T02:48:16.802Z,92.30
2017-09-27T02:50:49.955Z,92.30
2017-09-27T02:53:17.029Z,92.60
2017-09-27T02:55:43.050Z,92.20
2017-09-27T02:58:09.057Z,92.30
2017-09-27T03:00:36.232Z,92.20
2017-09-27T03:03:02.231Z,92.20
2017-09-27T03:05:28.249Z,92.10
2017-09-27T03:07:55.070Z,92.20
2017-09-27T03:10:21.068Z,92.20
2017-09-27T03:12:47.070Z,92.20
2017-09-27T03:15:13.114Z,92.20
2017-09-27T03:17:39.135Z,92.20
2017-09-27T03:20:05.160Z,92.30
2017-09-27T03:22:31.450Z,92.40
2017-09-27T03:24:57.464Z,92.30
2017-09-27T03:27:23.478Z,92.30
2017-09-27T03:29:49.514Z,92.30
2017-09-27T03:32:15.550Z,92.40
2017-09-27T03:34:41.562Z,92.40
2017-09-27T03:37:07.910Z,92.20
2017-09-27T03:39:33.914Z,92.20
2017-09-27T03:41:59.929Z,92.20
2017-09-27T03:44:25.974Z,92.20
2017-09-27T03:46:51.989Z,92.10
2017-09-27T03:49:17.998Z,92.10
2017-09-27T03:51:44.046Z,92.10
2017-09-27T03:54:10.054Z,92.20
2017-09-27T03:56:36.061Z,92.10
2017-09-27T03:59:02.137Z,92.20
2017-09-27T04:01:29.641Z,92.20
2017-09-27T04:03:55.668Z,92.10
2017-09-27T04:06:21.727Z,91.90
2017-09-27T04:08:47.793Z,92.00
2017-09-27T04:11:14.547Z,92.00
2017-09-27T04:13:40.865Z,92.00
2017-09-27T04:16:06.874Z,92.00
2017-09-27T04:18:33.658Z,92.20
2017-09-27T04:20:59.714Z,92.10
2017-09-27T04:23:25.743Z,92.50
2017-09-27T04:25:51.754Z,92.20
2017-09-27T04:28:17.798Z,92.20
2017-09-27T04:30:44.546Z,92.30
2017-09-27T04:33:11.293Z,92.30
2017-09-27T04:35:37.523Z,92.30
2017-09-27T04:38:03.533Z,92.60
2017-09-27T04:40:30.299Z,92.30
2017-09-27T04:42:56.438Z,92.30
2017-09-27T04:45:22.471Z,92.30
2017-09-27T04:47:48.483Z,92.30
2017-09-27T04:50:14.527Z,92.30
2017-09-27T04:52:40.540Z,92.30
2017-09-27T04:55:06.566Z,92.40
2017-09-27T04:57:32.633Z,92.50
2017-09-27T04:59:59.377Z,92.30
2017-09-27T05:02:25.408Z,92.30
2017-09-27T05:04:51.435Z,92.30
2017-09-27T05:07:17.456Z,92.30
2017-09-27T05:09:43.478Z,92.20
2017-09-27T05:12:09.522Z,92.40
2017-09-27T05:14:35.680Z,92.30
2017-09-27T05:17:01.886Z,92.40
2017-09-27T05:19:27.986Z,92.30
2017-09-27T05:21:54.037Z,92.50
2017-09-27T05:24:20.122Z,92.50
2017-09-27T05:26:46.154Z,92.40
2017-09-27T05:29:12.196Z,92.40
2017-09-27T05:31:38.599Z,92.30
2017-09-27T05:34:04.641Z,92.40
2017-09-27T05:36:30.950Z,92.30
2017-09-27T05:38:56.982Z,92.40
2017-09-27T05:41:23.012Z,92.40
2017-09-27T05:43:49.050Z,92.40
2017-09-27T05:46:15.238Z,92.50
2017-09-27T05:48:41.288Z,92.40
2017-09-27T05:51:07.323Z,92.40
2017-09-27T05:53:33.720Z,92.40
2017-09-27T05:55:59.767Z,92.50
2017-09-27T05:58:25.794Z,92.40
2017-09-27T06:00:51.874Z,92.30
2017-09-27T06:03:18.670Z,92.10
2017-09-27T06:05:44.713Z,92.10
2017-09-27T06:08:10.754Z,92.20
2017-09-27T06:10:37.518Z,92.30
2017-09-27T06:13:03.532Z,92.30
2017-09-27T06:15:29.614Z,92.40
2017-09-27T06:17:55.646Z,92.50
2017-09-27T06:20:22.418Z,92.50
2017-09-27T06:22:48.502Z,92.40
2017-09-27T06:25:14.726Z,92.30
2017-09-27T06:27:40.749Z,92.30
2017-09-27T06:30:06.769Z,92.30
2017-09-27T06:32:33.758Z,92.40
2017-09-27T06:34:59.774Z,92.40
2017-09-27T06:37:25.809Z,92.50
2017-09-27T06:39:51.863Z,92.40
2017-09-27T06:42:17.911Z,92.20
2017-09-27T06:44:43.933Z,92.10
2017-09-27T06:47:09.966Z,92.20
2017-09-27T06:49:36.719Z,92.30
2017-09-27T06:52:02.738Z,92.30
2017-09-27T06:54:29.698Z,92.40
2017-09-27T06:56:55.726Z,92.40
2017-09-27T06:59:21.750Z,92.40
2017-09-27T07:01:47.895Z,92.40
2017-09-27T07:04:13.918Z,92.30
2017-09-27T07:06:39.942Z,92.40
2017-09-27T07:09:06.058Z,92.50
2017-09-27T07:11:32.092Z,92.60
2017-09-27T07:13:58.144Z,92.50
2017-09-27T07:16:24.341Z,92.50
2017-09-27T07:18:50.363Z,92.30
2017-09-27T07:21:16.385Z,92.40
2017-09-27T07:23:42.442Z,92.50
2017-09-27T07:26:09.218Z,92.60
2017-09-27T07:28:35.242Z,92.60
2017-09-27T07:31:01.283Z,92.50
2017-09-27T07:33:27.310Z,92.60
2017-09-27T07:35:53.346Z,92.60
2017-09-27T07:38:19.389Z,92.70
2017-09-27T07:40:45.723Z,92.70
2017-09-27T07:43:12.492Z,92.70
2017-09-27T07:45:38.571Z,92.70
2017-09-27T07:48:04.586Z,92.80
2017-09-27T07:50:30.603Z,92.70
2017-09-27T07:52:56.883Z,92.90
2017-09-27T07:55:22.896Z,93.00
2017-09-27T07:57:48.911Z,92.90
2017-09-27T08:00:15.718Z,92.90
2017-09-27T08:02:41.715Z,92.90
2017-09-27T08:05:07.756Z,92.90
2017-09-27T08:07:33.810Z,92.80
2017-09-27T08:10:00.573Z,93.00
2017-09-27T08:12:26.578Z,93.00
2017-09-27T08:14:53.370Z,92.80
2017-09-27T08:17:19.386Z,92.80
2017-09-27T08:19:45.399Z,92.80
2017-09-27T08:22:11.446Z,92.70
2017-09-27T08:24:37.466Z,92.90
2017-09-27T08:27:03.486Z,92.80
2017-09-27T08:29:29.994Z,92.70
2017-09-27T08:31:56.030Z,92.60
2017-09-27T08:34:22.042Z,92.80
2017-09-27T08:36:48.113Z,92.50
2017-09-27T08:39:14.133Z,92.40
2017-09-27T08:41:40.395Z,92.80
2017-09-27T08:44:07.177Z,92.40
2017-09-27T08:46:40.286Z,92.50
2017-09-27T08:49:06.567Z,92.60
2017-09-27T08:51:32.591Z,92.60
2017-09-27T08:53:58.615Z,92.40
2017-09-27T08:56:24.662Z,92.40
2017-09-27T08:58:50.702Z,92.30
2017-09-27T09:01:16.750Z,92.50
2017-09-27T09:03:43.640Z,92.40
2017-09-27T09:06:09.695Z,92.40
2017-09-27T09:08:35.726Z,92.10
2017-09-27T09:11:01.803Z,92.00
2017-09-27T09:13:27.843Z,91.90
2017-09-27T09:15:53.908Z,91.90
2017-09-27T09:18:19.950Z,91.60
2017-09-27T09:20:45.986Z,91.60
2017-09-27T09:23:12.314Z,91.80
2017-09-27T09:25:38.348Z,91.90
2017-09-27T09:28:04.384Z,91.80
2017-09-27T09:30:30.485Z,91.40
2017-09-27T09:32:56.504Z,91.50
2017-09-27T09:35:22.537Z,91.40
2017-09-27T09:37:48.782Z,91.20
2017-09-27T09:40:14.837Z,91.20
2017-09-27T09:42:41.635Z,91.40
2017-09-27T09:45:07.654Z,91.40
2017-09-27T09:47:33.688Z,91.30
2017-09-27T09:50:00.275Z,91.40
2017-09-27T09:52:26.306Z,91.40
2017-09-27T09:54:52.349Z,91.50
2017-09-27T09:57:18.450Z,91.30
2017-09-27T09:59:45.217Z,91.20
2017-09-27T10:02:11.273Z,91.20
2017-09-27T10:04:38.121Z,91.20
2017-09-27T10:07:04.200Z,90.90
2017-09-27T10:09:30.221Z,91.20
2017-09-27T10:11:56.443Z,91.00
2017-09-27T10:14:22.471Z,91.00
2017-09-27T10:16:48.507Z,91.00
2017-09-27T10:19:14.616Z,91.10
2017-09-27T10:21:40.633Z,91.00
2017-09-27T10:24:06.664Z,90.70
2017-09-27T10:26:32.728Z,90.90
2017-09-27T10:28:58.802Z,90.90
2017-09-27T10:31:24.840Z,90.60
2017-09-27T10:33:51.464Z,90.40
2017-09-27T10:36:17.476Z,90.60
2017-09-27T10:38:43.522Z,90.00
2017-09-27T10:41:09.878Z,89.50
2017-09-27T10:43:35.919Z,89.40
2017-09-27T10:46:01.944Z,88.60
2017-09-27T10:48:28.921Z,89.60
2017-09-27T10:50:54.995Z,89.50
2017-09-27T10:53:21.008Z,89.30
2017-09-27T10:55:47.046Z,88.70
2017-09-27T10:58:13.871Z,88.60
2017-09-27T11:00:39.901Z,88.40
2017-09-27T11:03:06.000Z,88.60
2017-09-27T11:05:32.015Z,88.90
2017-09-27T11:07:58.038Z,89.10
2017-09-27T11:10:24.103Z,89.20
2017-09-27T11:12:50.902Z,88.50
2017-09-27T11:15:16.943Z,89.10
2017-09-27T11:17:43.021Z,88.70
2017-09-27T11:20:09.046Z,87.90
2017-09-27T11:22:35.083Z,86.30
2017-09-27T11:25:01.144Z,86.80
2017-09-27T11:27:27.178Z,87.50
2017-09-27T11:29:53.199Z,87.60
2017-09-27T11:32:19.466Z,87.60
2017-09-27T11:34:45.492Z,87.80
2017-09-27T11:37:11.573Z,87.90
2017-09-27T11:39:38.553Z,87.00
2017-09-27T11:42:04.578Z,87.00
2017-09-27T11:44:30.606Z,87.00
2017-09-27T11:46:56.834Z,87.10
2017-09-27T11:49:22.867Z,87.90
2017-09-27T11:51:48.899Z,86.70
2017-09-27T11:54:16.155Z,87.00
2017-09-27T11:56:42.178Z,86.20
2017-09-27T11:59:08.239Z,86.10
2017-09-27T12:01:35.208Z,87.10
2017-09-27T12:04:01.254Z,87.00
2017-09-27T12:06:27.291Z,86.80
2017-09-27T12:08:53.354Z,85.80
2017-09-27T12:11:20.130Z,86.40
2017-09-27T12:13:46.142Z,86.40
2017-09-27T12:16:12.193Z,86.30
2017-09-27T12:18:38.214Z,85.70
2017-09-27T12:21:04.286Z,85.70
2017-09-27T12:23:30.307Z,87.30
2017-09-27T12:25:56.337Z,86.70
2017-09-27T12:28:22.377Z,83.80
2017-09-27T12:30:48.452Z,83.30
2017-09-27T12:33:15.226Z,83.70
2017-09-27T12:35:41.462Z,83.70
2017-09-27T12:38:07.529Z,83.00
2017-09-27T12:40:33.548Z,83.40
2017-09-27T12:42:59.619Z,83.20
2017-09-27T12:45:25.654Z,83.60
2017-09-27T12:47:51.730Z,84.40
2017-09-27T12:50:18.826Z,85.70
2017-09-27T12:52:44.850Z,85.70
2017-09-27T12:55:10.881Z,86.50
2017-09-27T12:57:36.902Z,87.60
2017-09-27T13:00:03.158Z,88.60
2017-09-27T13:02:29.208Z,89.00
2017-09-27T13:04:55.970Z,90.40
2017-09-27T13:07:21.990Z,90.40
2017-09-27T13:09:48.038Z,91.00
2017-09-27T13:12:14.050Z,91.40
2017-09-27T13:14:40.067Z,91.90
2017-09-27T13:17:06.093Z,92.30
2017-09-27T13:19:32.117Z,92.30
2017-09-27T13:21:58.130Z,92.40
2017-09-27T13:24:24.219Z,92.80
2017-09-27T13:26:50.978Z,92.30
2017-09-27T13:29:16.992Z,92.30
2017-09-27T13:31:43.021Z,92.20
2017-09-27T13:34:09.025Z,92.80
2017-09-27T13:36:35.375Z,92.90
2017-09-27T13:39:01.394Z,93.10
2017-09-27T13:41:27.406Z,93.20
2017-09-27T13:43:53.645Z,92.90
2017-09-27T13:46:19.674Z,93.10
2017-09-27T13:48:45.712Z,92.20
2017-09-27T13:51:11.936Z,92.30
2017-09-27T13:53:38.003Z,92.20
2017-09-27T13:56:04.794Z,91.80
2017-09-27T13:58:30.857Z,91.80
2017-09-27T14:00:56.917Z,91.70
2017-09-27T14:03:23.101Z,92.50
2017-09-27T14:05:49.383Z,92.10
2017-09-27T14:08:15.416Z,92.10
2017-09-27T14:10:41.452Z,92.30
2017-09-27T14:13:14.303Z,92.40
2017-09-27T14:15:40.323Z,92.50
2017-09-27T14:18:06.654Z,92.60
2017-09-27T14:20:32.674Z,92.60
2017-09-27T14:22:58.704Z,92.60
2017-09-27T14:25:25.124Z,92.70
2017-09-27T14:27:51.162Z,92.50
2017-09-27T14:30:17.186Z,92.30
2017-09-27T14:32:43.339Z,92.10
2017-09-27T14:35:09.389Z,92.10
2017-09-27T14:37:36.179Z,92.50
2017-09-27T14:40:02.698Z,92.50
2017-09-27T14:42:28.732Z,92.50
2017-09-27T14:44:54.771Z,92.30
2017-09-27T14:47:20.811Z,92.20
2017-09-27T14:49:47.084Z,91.90
2017-09-27T14:52:13.111Z,91.90
2017-09-27T14:54:39.154Z,92.00
2017-09-27T14:57:05.207Z,92.20
2017-09-27T14:59:31.230Z,92.30
2017-09-27T15:01:57.459Z,92.30
2017-09-27T15:04:24.441Z,92.10
2017-09-27T15:06:50.462Z,92.20
2017-09-27T15:09:16.511Z,92.10
2017-09-27T15:11:42.572Z,92.00
2017-09-27T15:14:09.354Z,91.90
2017-09-27T15:16:35.385Z,91.90
2017-09-27T15:19:01.411Z,92.10
2017-09-27T15:21:27.464Z,92.00
2017-09-27T15:23:53.883Z,91.90
2017-09-27T15:26:19.939Z,92.30
2017-09-27T15:28:46.710Z,91.90
2017-09-27T15:31:13.343Z,91.80
2017-09-27T15:33:39.364Z,92.00
2017-09-27T15:36:05.399Z,92.10
2017-09-27T15:38:31.524Z,91.90
2017-09-27T15:40:57.575Z,91.80
2017-09-27T15:43:23.591Z,92.40
2017-09-27T15:45:49.639Z,92.10
2017-09-27T15:48:16.390Z,92.30
2017-09-27T15:50:43.134Z,92.30
2017-09-27T15:53:09.379Z,92.30
2017-09-27T15:55:35.410Z,92.30
2017-09-27T15:58:01.422Z,92.40
2017-09-27T16:00:27.478Z,92.70
2017-09-27T16:02:53.810Z,92.80
2017-09-27T16:05:20.333Z,93.00
2017-09-27T16:07:46.429Z,93.10
2017-09-27T16:10:12.462Z,93.10
2017-09-27T16:12:38.474Z,93.10
2017-09-27T16:15:04.746Z,93.20
2017-09-27T16:17:31.013Z,93.20
2017-09-27T16:19:57.086Z,92.80
2017-09-27T16:22:23.095Z,92.90
2017-09-27T16:24:49.158Z,93.00
2017-09-27T16:27:15.922Z,93.20
2017-09-27T16:29:41.974Z,93.10
2017-09-27T16:32:07.987Z,93.20
2017-09-27T16:34:34.030Z,93.10
2017-09-27T16:37:00.054Z,93.20
2017-09-27T16:39:26.127Z,93.00
2017-09-27T16:41:52.362Z,93.00
2017-09-27T16:44:18.386Z,93.40
2017-09-27T16:46:44.405Z,93.00
2017-09-27T16:49:10.458Z,93.00
2017-09-27T16:51:36.506Z,92.90
2017-09-27T16:54:02.527Z,93.00
2017-09-27T16:56:28.547Z,93.00
2017-09-27T16:58:55.335Z,93.00
2017-09-27T17:01:21.396Z,93.00
2017-09-27T17:03:47.462Z,93.00
2017-09-27T17:06:14.238Z,92.90
2017-09-27T17:08:40.298Z,92.90
2017-09-27T17:11:06.322Z,92.90
2017-09-27T17:13:32.345Z,93.00
2017-09-27T17:15:58.378Z,92.90
2017-09-27T17:18:25.150Z,92.80
2017-09-27T17:20:51.174Z,92.80
2017-09-27T17:23:17.394Z,92.80
2017-09-27T17:25:43.398Z,92.80
2017-09-27T17:28:09.424Z,92.80
2017-09-27T17:30:35.487Z,92.90
2017-09-27T17:33:01.511Z,92.80
2017-09-27T17:35:27.515Z,92.90
2017-09-27T17:37:53.675Z,93.00
2017-09-27T17:40:19.686Z,92.90
2017-09-27T17:42:45.747Z,93.00
2017-09-27T17:45:12.516Z,93.10
2017-09-27T17:47:38.588Z,93.10
2017-09-27T17:50:04.603Z,93.20
2017-09-27T17:52:30.615Z,93.50
2017-09-27T17:54:56.690Z,93.20
2017-09-27T17:57:22.698Z,93.10
2017-09-27T17:59:49.460Z,93.40
2017-09-27T18:02:15.522Z,93.40
2017-09-27T18:04:47.562Z,93.40
2017-09-27T18:07:18.676Z,93.50
2017-09-27T18:09:44.722Z,93.80
2017-09-27T18:12:16.854Z,93.40
2017-09-27T18:14:45.461Z,93.40
2017-09-27T18:17:14.541Z,93.50
2017-09-27T18:19:40.594Z,93.50
2017-09-27T18:22:06.631Z,93.50
2017-09-27T18:24:32.671Z,93.60
2017-09-27T18:26:58.718Z,93.90
2017-09-27T18:29:24.763Z,93.60
2017-09-27T18:31:50.783Z,93.70
2017-09-27T18:34:16.823Z,93.70
2017-09-27T18:36:42.845Z,93.70
2017-09-27T18:39:08.897Z,93.90
2017-09-27T18:41:35.304Z,93.90
2017-09-27T18:44:01.370Z,93.90
2017-09-27T18:46:28.135Z,93.90
2017-09-27T18:48:54.376Z,93.90
2017-09-27T18:51:20.398Z,93.90
2017-09-27T18:53:46.450Z,93.90
2017-09-27T18:56:12.533Z,93.70
2017-09-27T18:58:38.556Z,93.80
2017-09-27T19:01:04.634Z,93.90
2017-09-27T19:03:31.422Z,94.10
2017-09-27T19:05:57.459Z,94.00
2017-09-27T19:08:23.739Z,94.10
2017-09-27T19:10:50.868Z,94.10
2017-09-27T19:13:17.678Z,94.10
2017-09-27T19:15:43.706Z,94.00
2017-09-27T19:18:09.843Z,94.10
2017-09-27T19:20:36.716Z,94.10
2017-09-27T19:23:03.551Z,94.10
2017-09-27T19:25:30.434Z,94.20
2017-09-27T19:27:56.446Z,94.20
2017-09-27T19:30:22.530Z,94.30
2017-09-27T19:32:49.363Z,94.70
2017-09-27T19:35:16.149Z,94.90
2017-09-27T19:37:42.411Z,94.80
2017-09-27T19:40:08.426Z,95.00
2017-09-27T19:42:34.475Z,95.00
2017-09-27T19:45:01.288Z,95.20
2017-09-27T19:47:27.313Z,95.10
2017-09-27T19:49:53.342Z,95.20
2017-09-27T19:52:19.633Z,95.20
2017-09-27T19:54:45.642Z,95.20
2017-09-27T19:57:11.670Z,95.30
2017-09-27T19:59:37.783Z,95.40
2017-09-27T20:02:03.841Z,95.40
2017-09-27T20:04:29.879Z,95.40
2017-09-27T20:06:56.167Z,95.50
2017-09-27T20:09:22.231Z,95.50
2017-09-27T20:11:48.279Z,95.50
2017-09-27T20:14:14.307Z,95.60
2017-09-27T20:16:41.061Z,95.70
2017-09-27T20:19:07.158Z,95.60
2017-09-27T20:21:33.914Z,95.60
2017-09-27T20:24:00.707Z,95.80
2017-09-27T20:26:26.937Z,95.50
2017-09-27T20:28:52.950Z,95.40
2017-09-27T20:31:19.002Z,95.30
2017-09-27T20:33:45.097Z,95.40
2017-09-27T20:36:11.112Z,95.20
2017-09-27T20:38:37.132Z,95.20
2017-09-27T20:41:03.170Z,95.20
2017-09-27T20:43:29.188Z,95.10
2017-09-27T20:45:55.242Z,95.00
2017-09-27T20:48:21.287Z,94.90
2017-09-27T20:50:47.304Z,94.80
2017-09-27T20:53:14.041Z,94.90
2017-09-27T20:55:40.827Z,94.80
2017-09-27T20:58:06.846Z,94.80
2017-09-27T21:00:32.867Z,94.80
2017-09-27T21:02:59.176Z,94.70
2017-09-27T21:05:25.194Z,94.90
2017-09-27T21:07:51.226Z,94.80
2017-09-27T21:10:17.479Z,94.90
2017-09-27T21:12:43.500Z,94.90
2017-09-27T21:15:09.527Z,94.90
2017-09-27T21:17:35.845Z,94.90
2017-09-27T21:20:01.854Z,94.90
2017-09-27T21:22:27.898Z,95.00
2017-09-27T21:24:53.919Z,94.90
2017-09-27T21:27:19.939Z,94.60
2017-09-27T21:29:46.536Z,94.50
2017-09-27T21:32:13.071Z,94.60
2017-09-27T21:34:39.385Z,94.60
2017-09-27T21:37:06.156Z,94.70
2017-09-27T21:39:32.471Z,94.70
2017-09-27T21:41:58.856Z,94.70
2017-09-27T21:44:25.610Z,94.90
2017-09-27T21:46:52.373Z,94.90
2017-09-27T21:49:19.005Z,94.90
2017-09-27T21:51:45.034Z,95.00
2017-09-27T21:54:11.042Z,94.60
2017-09-27T21:56:37.050Z,94.60
2017-09-27T21:59:03.831Z,94.70
2017-09-27T22:01:29.861Z,94.70
2017-09-27T22:03:55.866Z,94.70
2017-09-27T22:06:21.911Z,94.80
2017-09-27T22:08:47.935Z,94.80
2017-09-27T22:11:14.173Z,95.10
2017-09-27T22:13:40.187Z,94.80
2017-09-27T22:16:06.188Z,94.70
2017-09-27T22:18:32.202Z,94.70
2017-09-27T22:20:58.215Z,94.70
2017-09-27T22:23:24.760Z,94.80
2017-09-27T22:25:50.974Z,94.80
2017-09-27T22:28:16.982Z,94.70
2017-09-27T22:30:43.003Z,94.80
2017-09-27T22:33:09.041Z,94.80
2017-09-27T22:35:35.062Z,94.70
2017-09-27T22:38:01.086Z,94.70
2017-09-27T22:40:27.122Z,94.70
2017-09-27T22:42:53.124Z,94.70
2017-09-27T22:45:19.139Z,94.70
2017-09-27T22:47:45.170Z,94.60
2017-09-27T22:50:11.188Z,94.60
2017-09-27T22:52:37.233Z,94.60
2017-09-27T22:55:03.539Z,94.50
2017-09-27T22:57:29.568Z,94.40
2017-09-27T22:59:55.582Z,94.60
2017-09-27T23:02:21.652Z,94.60
2017-09-27T23:04:47.650Z,94.50
2017-09-27T23:07:13.679Z,94.50
2017-09-27T23:09:39.695Z,94.50
2017-09-27T23:12:05.706Z,94.50
2017-09-27T23:14:31.994Z,94.40
2017-09-27T23:16:58.742Z,94.40
2017-09-27T23:19:24.752Z,94.40
2017-09-27T23:21:51.517Z,94.50
2017-09-27T23:24:17.526Z,94.50
2017-09-27T23:26:43.565Z,94.40
2017-09-27T23:29:09.574Z,94.50
2017-09-27T23:31:35.591Z,94.50
2017-09-27T23:34:01.630Z,94.60
2017-09-27T23:36:27.650Z,94.50
2017-09-27T23:38:53.669Z,94.50
2017-09-27T23:41:19.688Z,94.40
2017-09-27T23:43:45.728Z,94.50
2017-09-27T23:46:11.758Z,94.40
2017-09-27T23:48:37.771Z,94.30
2017-09-27T23:51:05.179Z,94.40
2017-09-27T23:53:31.958Z,94.20
2017-09-27T23:55:57.962Z,94.20
2017-09-27T23:58:24.010Z,94.30
